sensor_id;sensor_type;location;lat;lon;timestamp;P1;durP1;ratioP1;P2;durP2;ratioP2
20294;SDS011;10306;52.128;5.208;2023-04-15T00:00:57;4.70;;;4.30;;
20294;SDS011;10306;52.128;5.208;2023-04-15T00:03:24;3.77;;;3.53;;
20294;SDS011;10306;52.128;5.208;2023-04-15T00:05:49;6.30;;;4.30;;
20294;SDS011;10306;52.128;5.208;2023-04-15T00:08:16;4.17;;;3.60;;
20294;SDS011;10306;52.128;5.208;2023-04-15T00:10:42;5.67;;;4.30;;
20294;SDS011;10306;52.128;5.208;2023-04-15T00:13:10;5.13;;;3.90;;
20294;SDS011;10306;52.128;5.208;2023-04-15T00:15:36;4.17;;;3.80;;
20294;SDS011;10306;52.128;5.208;2023-04-15T00:18:02;4.67;;;4.00;;
20294;SDS011;10306;52.128;5.208;2023-04-15T00:20:28;4.20;;;3.80;;
20294;SDS011;10306;52.128;5.208;2023-04-15T00:22:54;7.10;;;3.80;;
20294;SDS011;10306;52.128;5.208;2023-04-15T00:25:20;4.57;;;3.90;;
20294;SDS011;10306;52.128;5.208;2023-04-15T00:27:46;6.77;;;4.10;;
20294;SDS011;10306;52.128;5.208;2023-04-15T00:30:12;4.80;;;4.20;;
20294;SDS011;10306;52.128;5.208;2023-04-15T00:32:38;4.47;;;4.07;;
20294;SDS011;10306;52.128;5.208;2023-04-15T00:35:06;4.67;;;4.03;;
20294;SDS011;10306;52.128;5.208;2023-04-15T00:37:32;5.10;;;3.83;;
20294;SDS011;10306;52.128;5.208;2023-04-15T00:39:59;4.43;;;4.03;;
20294;SDS011;10306;52.128;5.208;2023-04-15T00:42:25;5.37;;;4.27;;
20294;SDS011;10306;52.128;5.208;2023-04-15T00:44:52;5.10;;;4.17;;
20294;SDS011;10306;52.128;5.208;2023-04-15T00:47:18;5.40;;;4.33;;
20294;SDS011;10306;52.128;5.208;2023-04-15T00:49:45;6.87;;;4.17;;
20294;SDS011;10306;52.128;5.208;2023-04-15T00:52:11;3.73;;;3.53;;
20294;SDS011;10306;52.128;5.208;2023-04-15T00:54:37;6.23;;;4.47;;
20294;SDS011;10306;52.128;5.208;2023-04-15T00:57:04;5.70;;;4.30;;
20294;SDS011;10306;52.128;5.208;2023-04-15T00:59:30;4.10;;;3.77;;
20294;SDS011;10306;52.128;5.208;2023-04-15T01:01:57;5.23;;;4.27;;
20294;SDS011;10306;52.128;5.208;2023-04-15T01:04:23;4.43;;;4.03;;
20294;SDS011;10306;52.128;5.208;2023-04-15T01:06:49;4.27;;;3.90;;
20294;SDS011;10306;52.128;5.208;2023-04-15T01:09:16;4.03;;;3.73;;
20294;SDS011;10306;52.128;5.208;2023-04-15T01:11:42;3.87;;;3.63;;
20294;SDS011;10306;52.128;5.208;2023-04-15T01:14:08;4.53;;;4.23;;
20294;SDS011;10306;52.128;5.208;2023-04-15T01:16:35;4.33;;;4.03;;
20294;SDS011;10306;52.128;5.208;2023-04-15T01:19:03;5.60;;;3.83;;
20294;SDS011;10306;52.128;5.208;2023-04-15T01:21:29;4.50;;;4.20;;
20294;SDS011;10306;52.128;5.208;2023-04-15T01:23:55;5.90;;;4.10;;
20294;SDS011;10306;52.128;5.208;2023-04-15T01:26:22;4.73;;;4.20;;
20294;SDS011;10306;52.128;5.208;2023-04-15T01:28:48;6.40;;;4.20;;
20294;SDS011;10306;52.128;5.208;2023-04-15T01:31:14;4.50;;;4.10;;
20294;SDS011;10306;52.128;5.208;2023-04-15T01:33:41;4.30;;;4.00;;
20294;SDS011;10306;52.128;5.208;2023-04-15T01:36:08;5.30;;;4.17;;
20294;SDS011;10306;52.128;5.208;2023-04-15T01:38:35;5.93;;;4.20;;
20294;SDS011;10306;52.128;5.208;2023-04-15T01:41:01;5.67;;;4.23;;
20294;SDS011;10306;52.128;5.208;2023-04-15T01:43:28;4.60;;;4.20;;
20294;SDS011;10306;52.128;5.208;2023-04-15T01:45:54;4.43;;;4.07;;
20294;SDS011;10306;52.128;5.208;2023-04-15T01:48:21;4.43;;;4.13;;
20294;SDS011;10306;52.128;5.208;2023-04-15T01:50:47;6.50;;;4.93;;
20294;SDS011;10306;52.128;5.208;2023-04-15T01:53:13;4.57;;;4.27;;
20294;SDS011;10306;52.128;5.208;2023-04-15T01:55:39;5.43;;;4.43;;
20294;SDS011;10306;52.128;5.208;2023-04-15T01:58:05;6.47;;;4.20;;
20294;SDS011;10306;52.128;5.208;2023-04-15T02:00:31;6.13;;;4.67;;
20294;SDS011;10306;52.128;5.208;2023-04-15T02:02:57;5.37;;;4.70;;
20294;SDS011;10306;52.128;5.208;2023-04-15T02:05:24;8.63;;;4.40;;
20294;SDS011;10306;52.128;5.208;2023-04-15T02:07:50;6.10;;;4.90;;
20294;SDS011;10306;52.128;5.208;2023-04-15T02:10:17;4.90;;;4.40;;
20294;SDS011;10306;52.128;5.208;2023-04-15T02:12:43;5.17;;;4.73;;
20294;SDS011;10306;52.128;5.208;2023-04-15T02:15:09;5.40;;;4.97;;
20294;SDS011;10306;52.128;5.208;2023-04-15T02:17:35;4.43;;;4.13;;
20294;SDS011;10306;52.128;5.208;2023-04-15T02:20:02;4.63;;;4.30;;
20294;SDS011;10306;52.128;5.208;2023-04-15T02:22:32;5.03;;;4.63;;
20294;SDS011;10306;52.128;5.208;2023-04-15T02:24:58;5.37;;;4.60;;
20294;SDS011;10306;52.128;5.208;2023-04-15T02:27:24;5.37;;;4.70;;
20294;SDS011;10306;52.128;5.208;2023-04-15T02:29:50;5.20;;;4.50;;
20294;SDS011;10306;52.128;5.208;2023-04-15T02:32:16;5.30;;;4.80;;
20294;SDS011;10306;52.128;5.208;2023-04-15T02:34:42;5.00;;;4.60;;
20294;SDS011;10306;52.128;5.208;2023-04-15T02:37:12;5.00;;;4.70;;
20294;SDS011;10306;52.128;5.208;2023-04-15T02:39:38;4.77;;;4.47;;
20294;SDS011;10306;52.128;5.208;2023-04-15T02:42:04;5.00;;;4.60;;
20294;SDS011;10306;52.128;5.208;2023-04-15T02:44:30;6.10;;;4.80;;
20294;SDS011;10306;52.128;5.208;2023-04-15T02:46:56;4.97;;;4.57;;
20294;SDS011;10306;52.128;5.208;2023-04-15T02:49:23;5.07;;;4.67;;
20294;SDS011;10306;52.128;5.208;2023-04-15T02:51:49;5.10;;;4.60;;
20294;SDS011;10306;52.128;5.208;2023-04-15T02:54:16;6.00;;;5.40;;
20294;SDS011;10306;52.128;5.208;2023-04-15T02:56:42;5.47;;;4.97;;
20294;SDS011;10306;52.128;5.208;2023-04-15T02:59:08;5.40;;;4.97;;
20294;SDS011;10306;52.128;5.208;2023-04-15T03:01:34;5.80;;;5.30;;
20294;SDS011;10306;52.128;5.208;2023-04-15T03:04:00;5.13;;;4.63;;
20294;SDS011;10306;52.128;5.208;2023-04-15T03:06:26;5.87;;;5.37;;
20294;SDS011;10306;52.128;5.208;2023-04-15T03:08:52;6.67;;;5.47;;
20294;SDS011;10306;52.128;5.208;2023-04-15T03:11:18;6.07;;;5.50;;
20294;SDS011;10306;52.128;5.208;2023-04-15T03:13:45;5.27;;;4.60;;
20294;SDS011;10306;52.128;5.208;2023-04-15T03:16:11;5.77;;;5.27;;
20294;SDS011;10306;52.128;5.208;2023-04-15T03:18:37;6.13;;;5.60;;
20294;SDS011;10306;52.128;5.208;2023-04-15T03:21:03;6.17;;;5.47;;
20294;SDS011;10306;52.128;5.208;2023-04-15T03:23:30;6.13;;;5.53;;
20294;SDS011;10306;52.128;5.208;2023-04-15T03:25:56;6.63;;;5.50;;
20294;SDS011;10306;52.128;5.208;2023-04-15T03:28:23;5.33;;;4.77;;
20294;SDS011;10306;52.128;5.208;2023-04-15T03:30:49;5.70;;;4.97;;
20294;SDS011;10306;52.128;5.208;2023-04-15T03:33:15;5.83;;;5.30;;
20294;SDS011;10306;52.128;5.208;2023-04-15T03:35:41;6.10;;;5.60;;
20294;SDS011;10306;52.128;5.208;2023-04-15T03:38:07;5.53;;;4.77;;
20294;SDS011;10306;52.128;5.208;2023-04-15T03:40:33;6.77;;;5.27;;
20294;SDS011;10306;52.128;5.208;2023-04-15T03:42:59;6.10;;;5.50;;
20294;SDS011;10306;52.128;5.208;2023-04-15T03:45:25;6.40;;;5.67;;
20294;SDS011;10306;52.128;5.208;2023-04-15T03:47:51;8.40;;;5.63;;
20294;SDS011;10306;52.128;5.208;2023-04-15T03:50:17;6.40;;;5.53;;
20294;SDS011;10306;52.128;5.208;2023-04-15T03:52:43;5.80;;;5.17;;
20294;SDS011;10306;52.128;5.208;2023-04-15T03:55:10;6.23;;;5.53;;
20294;SDS011;10306;52.128;5.208;2023-04-15T03:57:36;5.30;;;5.00;;
20294;SDS011;10306;52.128;5.208;2023-04-15T04:00:06;5.70;;;5.20;;
20294;SDS011;10306;52.128;5.208;2023-04-15T04:02:35;7.77;;;5.57;;
20294;SDS011;10306;52.128;5.208;2023-04-15T04:05:02;6.53;;;5.17;;
20294;SDS011;10306;52.128;5.208;2023-04-15T04:07:28;6.03;;;5.43;;
20294;SDS011;10306;52.128;5.208;2023-04-15T04:09:55;7.53;;;5.77;;
20294;SDS011;10306;52.128;5.208;2023-04-15T04:12:21;5.97;;;5.50;;
20294;SDS011;10306;52.128;5.208;2023-04-15T04:14:47;6.93;;;6.23;;
20294;SDS011;10306;52.128;5.208;2023-04-15T04:17:13;6.17;;;5.57;;
20294;SDS011;10306;52.128;5.208;2023-04-15T04:19:38;6.77;;;5.83;;
20294;SDS011;10306;52.128;5.208;2023-04-15T04:22:04;6.80;;;5.67;;
20294;SDS011;10306;52.128;5.208;2023-04-15T04:24:30;6.00;;;5.53;;
20294;SDS011;10306;52.128;5.208;2023-04-15T04:26:56;9.33;;;5.47;;
20294;SDS011;10306;52.128;5.208;2023-04-15T04:29:22;7.87;;;5.77;;
20294;SDS011;10306;52.128;5.208;2023-04-15T04:31:48;5.80;;;5.30;;
20294;SDS011;10306;52.128;5.208;2023-04-15T04:34:15;8.33;;;6.13;;
20294;SDS011;10306;52.128;5.208;2023-04-15T04:36:41;7.00;;;5.53;;
20294;SDS011;10306;52.128;5.208;2023-04-15T04:39:07;6.77;;;6.13;;
20294;SDS011;10306;52.128;5.208;2023-04-15T04:41:33;8.87;;;5.97;;
20294;SDS011;10306;52.128;5.208;2023-04-15T04:43:59;8.80;;;6.23;;
20294;SDS011;10306;52.128;5.208;2023-04-15T04:46:25;6.23;;;5.73;;
20294;SDS011;10306;52.128;5.208;2023-04-15T04:48:51;6.60;;;5.97;;
20294;SDS011;10306;52.128;5.208;2023-04-15T04:51:17;6.57;;;5.90;;
20294;SDS011;10306;52.128;5.208;2023-04-15T04:53:43;8.27;;;5.93;;
20294;SDS011;10306;52.128;5.208;2023-04-15T04:56:09;7.63;;;5.97;;
20294;SDS011;10306;52.128;5.208;2023-04-15T04:58:35;7.10;;;5.57;;
20294;SDS011;10306;52.128;5.208;2023-04-15T05:01:02;6.40;;;5.83;;
20294;SDS011;10306;52.128;5.208;2023-04-15T05:03:28;7.33;;;6.23;;
20294;SDS011;10306;52.128;5.208;2023-04-15T05:05:54;7.90;;;5.83;;
20294;SDS011;10306;52.128;5.208;2023-04-15T05:08:20;11.80;;;6.50;;
20294;SDS011;10306;52.128;5.208;2023-04-15T05:10:46;6.60;;;5.97;;
20294;SDS011;10306;52.128;5.208;2023-04-15T05:13:12;6.47;;;5.67;;
20294;SDS011;10306;52.128;5.208;2023-04-15T05:15:38;6.57;;;5.97;;
20294;SDS011;10306;52.128;5.208;2023-04-15T05:18:05;8.33;;;6.10;;
20294;SDS011;10306;52.128;5.208;2023-04-15T05:20:31;8.87;;;6.47;;
20294;SDS011;10306;52.128;5.208;2023-04-15T05:22:57;7.90;;;6.40;;
20294;SDS011;10306;52.128;5.208;2023-04-15T05:25:23;8.40;;;6.20;;
20294;SDS011;10306;52.128;5.208;2023-04-15T05:27:49;6.80;;;6.20;;
20294;SDS011;10306;52.128;5.208;2023-04-15T05:30:15;6.40;;;5.80;;
20294;SDS011;10306;52.128;5.208;2023-04-15T05:32:41;6.60;;;6.03;;
20294;SDS011;10306;52.128;5.208;2023-04-15T05:35:07;7.07;;;6.47;;
20294;SDS011;10306;52.128;5.208;2023-04-15T05:37:33;11.67;;;5.90;;
20294;SDS011;10306;52.128;5.208;2023-04-15T05:39:59;6.97;;;6.37;;
20294;SDS011;10306;52.128;5.208;2023-04-15T05:42:25;6.43;;;5.93;;
20294;SDS011;10306;52.128;5.208;2023-04-15T05:44:51;7.70;;;5.90;;
20294;SDS011;10306;52.128;5.208;2023-04-15T05:47:17;9.30;;;6.37;;
20294;SDS011;10306;52.128;5.208;2023-04-15T05:49:43;8.23;;;6.03;;
20294;SDS011;10306;52.128;5.208;2023-04-15T05:52:09;7.07;;;5.63;;
20294;SDS011;10306;52.128;5.208;2023-04-15T05:54:35;6.53;;;5.93;;
20294;SDS011;10306;52.128;5.208;2023-04-15T05:57:01;6.10;;;5.60;;
20294;SDS011;10306;52.128;5.208;2023-04-15T05:59:27;7.60;;;6.73;;
20294;SDS011;10306;52.128;5.208;2023-04-15T06:01:54;9.13;;;6.70;;
20294;SDS011;10306;52.128;5.208;2023-04-15T06:04:20;6.97;;;6.33;;
20294;SDS011;10306;52.128;5.208;2023-04-15T06:06:46;7.77;;;6.43;;
20294;SDS011;10306;52.128;5.208;2023-04-15T06:09:12;6.57;;;5.97;;
20294;SDS011;10306;52.128;5.208;2023-04-15T06:11:38;8.13;;;6.50;;
20294;SDS011;10306;52.128;5.208;2023-04-15T06:14:05;7.23;;;6.50;;
20294;SDS011;10306;52.128;5.208;2023-04-15T06:16:31;7.13;;;6.30;;
20294;SDS011;10306;52.128;5.208;2023-04-15T06:18:57;7.10;;;6.07;;
20294;SDS011;10306;52.128;5.208;2023-04-15T06:21:23;8.10;;;6.40;;
20294;SDS011;10306;52.128;5.208;2023-04-15T06:23:49;7.50;;;6.67;;
20294;SDS011;10306;52.128;5.208;2023-04-15T06:26:15;9.83;;;7.23;;
20294;SDS011;10306;52.128;5.208;2023-04-15T06:28:40;7.07;;;6.37;;
20294;SDS011;10306;52.128;5.208;2023-04-15T06:31:06;10.40;;;6.87;;
20294;SDS011;10306;52.128;5.208;2023-04-15T06:33:33;7.87;;;6.97;;
20294;SDS011;10306;52.128;5.208;2023-04-15T06:35:59;7.47;;;6.80;;
20294;SDS011;10306;52.128;5.208;2023-04-15T06:38:24;7.97;;;6.53;;
20294;SDS011;10306;52.128;5.208;2023-04-15T06:40:51;6.73;;;6.23;;
20294;SDS011;10306;52.128;5.208;2023-04-15T06:43:17;8.27;;;7.10;;
20294;SDS011;10306;52.128;5.208;2023-04-15T06:45:43;8.03;;;7.23;;
20294;SDS011;10306;52.128;5.208;2023-04-15T06:48:09;8.90;;;7.33;;
20294;SDS011;10306;52.128;5.208;2023-04-15T06:50:36;7.87;;;7.07;;
20294;SDS011;10306;52.128;5.208;2023-04-15T06:53:02;8.63;;;7.40;;
20294;SDS011;10306;52.128;5.208;2023-04-15T06:55:28;9.87;;;7.10;;
20294;SDS011;10306;52.128;5.208;2023-04-15T06:57:55;9.43;;;7.63;;
20294;SDS011;10306;52.128;5.208;2023-04-15T07:00:21;7.53;;;6.87;;
20294;SDS011;10306;52.128;5.208;2023-04-15T07:02:47;8.97;;;8.07;;
20294;SDS011;10306;52.128;5.208;2023-04-15T07:05:13;8.73;;;7.30;;
20294;SDS011;10306;52.128;5.208;2023-04-15T07:07:39;9.23;;;7.70;;
20294;SDS011;10306;52.128;5.208;2023-04-15T07:10:06;8.83;;;7.93;;
20294;SDS011;10306;52.128;5.208;2023-04-15T07:12:32;10.07;;;7.67;;
20294;SDS011;10306;52.128;5.208;2023-04-15T07:14:59;9.57;;;7.43;;
20294;SDS011;10306;52.128;5.208;2023-04-15T07:17:25;9.77;;;7.90;;
20294;SDS011;10306;52.128;5.208;2023-04-15T07:19:51;9.47;;;7.73;;
20294;SDS011;10306;52.128;5.208;2023-04-15T07:22:17;12.27;;;7.63;;
20294;SDS011;10306;52.128;5.208;2023-04-15T07:24:42;9.27;;;6.93;;
20294;SDS011;10306;52.128;5.208;2023-04-15T07:27:08;7.90;;;7.10;;
20294;SDS011;10306;52.128;5.208;2023-04-15T07:29:34;9.93;;;8.27;;
20294;SDS011;10306;52.128;5.208;2023-04-15T07:32:00;7.97;;;7.10;;
20294;SDS011;10306;52.128;5.208;2023-04-15T07:34:26;8.60;;;7.73;;
20294;SDS011;10306;52.128;5.208;2023-04-15T07:36:52;8.57;;;7.73;;
20294;SDS011;10306;52.128;5.208;2023-04-15T07:39:18;9.67;;;7.80;;
20294;SDS011;10306;52.128;5.208;2023-04-15T07:41:44;9.07;;;7.27;;
20294;SDS011;10306;52.128;5.208;2023-04-15T07:44:11;9.40;;;6.93;;
20294;SDS011;10306;52.128;5.208;2023-04-15T07:46:37;7.13;;;6.20;;
20294;SDS011;10306;52.128;5.208;2023-04-15T07:49:03;6.40;;;5.80;;
20294;SDS011;10306;52.128;5.208;2023-04-15T07:51:29;6.03;;;5.53;;
20294;SDS011;10306;52.128;5.208;2023-04-15T07:53:56;6.03;;;5.43;;
20294;SDS011;10306;52.128;5.208;2023-04-15T07:56:22;5.20;;;4.80;;
20294;SDS011;10306;52.128;5.208;2023-04-15T07:58:48;5.10;;;4.70;;
20294;SDS011;10306;52.128;5.208;2023-04-15T08:01:14;4.30;;;4.00;;
20294;SDS011;10306;52.128;5.208;2023-04-15T08:03:40;4.50;;;4.20;;
20294;SDS011;10306;52.128;5.208;2023-04-15T08:06:06;5.27;;;4.87;;
20294;SDS011;10306;52.128;5.208;2023-04-15T08:08:33;5.40;;;4.97;;
20294;SDS011;10306;52.128;5.208;2023-04-15T08:10:59;5.80;;;5.30;;
20294;SDS011;10306;52.128;5.208;2023-04-15T08:13:25;5.30;;;4.90;;
20294;SDS011;10306;52.128;5.208;2023-04-15T08:16:34;5.30;;;4.90;;
20294;SDS011;10306;52.128;5.208;2023-04-15T08:18:41;5.90;;;4.80;;
20294;SDS011;10306;52.128;5.208;2023-04-15T08:21:07;5.57;;;5.07;;
20294;SDS011;10306;52.128;5.208;2023-04-15T08:23:33;5.33;;;4.90;;
20294;SDS011;10306;52.128;5.208;2023-04-15T08:25:59;6.03;;;5.30;;
20294;SDS011;10306;52.128;5.208;2023-04-15T08:28:25;5.70;;;5.20;;
20294;SDS011;10306;52.128;5.208;2023-04-15T08:30:51;5.27;;;4.90;;
20294;SDS011;10306;52.128;5.208;2023-04-15T08:33:17;5.53;;;5.20;;
20294;SDS011;10306;52.128;5.208;2023-04-15T08:35:43;5.23;;;4.83;;
20294;SDS011;10306;52.128;5.208;2023-04-15T08:38:09;4.93;;;4.53;;
20294;SDS011;10306;52.128;5.208;2023-04-15T08:40:43;6.37;;;4.83;;
20294;SDS011;10306;52.128;5.208;2023-04-15T08:43:10;6.07;;;4.57;;
20294;SDS011;10306;52.128;5.208;2023-04-15T08:45:37;4.77;;;4.37;;
20294;SDS011;10306;52.128;5.208;2023-04-15T08:48:04;4.77;;;4.30;;
20294;SDS011;10306;52.128;5.208;2023-04-15T08:50:31;4.70;;;4.40;;
20294;SDS011;10306;52.128;5.208;2023-04-15T08:53:00;4.27;;;3.90;;
20294;SDS011;10306;52.128;5.208;2023-04-15T08:55:27;4.80;;;4.43;;
20294;SDS011;10306;52.128;5.208;2023-04-15T08:57:54;4.50;;;3.97;;
20294;SDS011;10306;52.128;5.208;2023-04-15T09:00:21;4.93;;;3.83;;
20294;SDS011;10306;52.128;5.208;2023-04-15T09:02:47;4.27;;;3.97;;
20294;SDS011;10306;52.128;5.208;2023-04-15T09:05:13;4.53;;;4.13;;
20294;SDS011;10306;52.128;5.208;2023-04-15T09:07:40;3.33;;;3.13;;
20294;SDS011;10306;52.128;5.208;2023-04-15T09:10:06;3.60;;;3.30;;
20294;SDS011;10306;52.128;5.208;2023-04-15T09:12:35;2.83;;;2.63;;
20294;SDS011;10306;52.128;5.208;2023-04-15T09:15:02;2.87;;;2.77;;
20294;SDS011;10306;52.128;5.208;2023-04-15T09:17:28;2.87;;;2.77;;
20294;SDS011;10306;52.128;5.208;2023-04-15T09:20:06;3.20;;;3.00;;
20294;SDS011;10306;52.128;5.208;2023-04-15T09:22:32;3.20;;;3.00;;
20294;SDS011;10306;52.128;5.208;2023-04-15T09:24:58;2.73;;;2.53;;
20294;SDS011;10306;52.128;5.208;2023-04-15T09:27:25;2.93;;;2.73;;
20294;SDS011;10306;52.128;5.208;2023-04-15T09:29:52;3.27;;;3.07;;
20294;SDS011;10306;52.128;5.208;2023-04-15T09:32:18;3.43;;;3.13;;
20294;SDS011;10306;52.128;5.208;2023-04-15T09:34:47;3.30;;;3.00;;
20294;SDS011;10306;52.128;5.208;2023-04-15T09:37:13;3.13;;;2.90;;
20294;SDS011;10306;52.128;5.208;2023-04-15T09:39:45;3.60;;;3.30;;
20294;SDS011;10306;52.128;5.208;2023-04-15T09:42:12;3.27;;;3.00;;
20294;SDS011;10306;52.128;5.208;2023-04-15T09:44:38;3.20;;;2.90;;
20294;SDS011;10306;52.128;5.208;2023-04-15T09:47:04;3.10;;;2.90;;
20294;SDS011;10306;52.128;5.208;2023-04-15T09:49:30;3.23;;;3.03;;
20294;SDS011;10306;52.128;5.208;2023-04-15T09:51:57;4.00;;;3.70;;
20294;SDS011;10306;52.128;5.208;2023-04-15T09:54:24;3.77;;;3.27;;
20294;SDS011;10306;52.128;5.208;2023-04-15T09:56:58;11.40;;;5.00;;
20294;SDS011;10306;52.128;5.208;2023-04-15T09:59:29;2.63;;;2.50;;
20294;SDS011;10306;52.128;5.208;2023-04-15T10:01:55;3.20;;;2.90;;
20294;SDS011;10306;52.128;5.208;2023-04-15T10:04:22;2.60;;;2.40;;
20294;SDS011;10306;52.128;5.208;2023-04-15T10:06:48;3.87;;;2.40;;
20294;SDS011;10306;52.128;5.208;2023-04-15T10:09:14;2.20;;;2.10;;
20294;SDS011;10306;52.128;5.208;2023-04-15T10:11:41;3.23;;;2.63;;
20294;SDS011;10306;52.128;5.208;2023-04-15T10:14:08;2.80;;;2.60;;
20294;SDS011;10306;52.128;5.208;2023-04-15T10:16:35;2.13;;;2.03;;
20294;SDS011;10306;52.128;5.208;2023-04-15T10:19:03;4.63;;;2.10;;
20294;SDS011;10306;52.128;5.208;2023-04-15T10:21:31;2.03;;;1.93;;
20294;SDS011;10306;52.128;5.208;2023-04-15T10:23:58;2.30;;;2.20;;
20294;SDS011;10306;52.128;5.208;2023-04-15T10:26:25;2.40;;;2.30;;
20294;SDS011;10306;52.128;5.208;2023-04-15T10:28:52;2.70;;;2.50;;
20294;SDS011;10306;52.128;5.208;2023-04-15T10:31:18;2.60;;;2.50;;
20294;SDS011;10306;52.128;5.208;2023-04-15T10:33:44;2.30;;;2.10;;
20294;SDS011;10306;52.128;5.208;2023-04-15T10:36:11;2.80;;;2.60;;
20294;SDS011;10306;52.128;5.208;2023-04-15T10:38:41;2.93;;;2.73;;
20294;SDS011;10306;52.128;5.208;2023-04-15T10:43:39;2.73;;;2.60;;
20294;SDS011;10306;52.128;5.208;2023-04-15T10:46:10;7.13;;;3.13;;
20294;SDS011;10306;52.128;5.208;2023-04-15T10:48:36;3.20;;;3.00;;
20294;SDS011;10306;52.128;5.208;2023-04-15T10:51:02;3.10;;;2.90;;
20294;SDS011;10306;52.128;5.208;2023-04-15T10:53:29;3.47;;;3.17;;
20294;SDS011;10306;52.128;5.208;2023-04-15T10:55:56;3.70;;;3.50;;
20294;SDS011;10306;52.128;5.208;2023-04-15T10:58:23;3.03;;;2.83;;
20294;SDS011;10306;52.128;5.208;2023-04-15T11:00:50;3.30;;;3.10;;
20294;SDS011;10306;52.128;5.208;2023-04-15T11:03:17;3.20;;;2.90;;
20294;SDS011;10306;52.128;5.208;2023-04-15T11:05:58;2.73;;;2.53;;
20294;SDS011;10306;52.128;5.208;2023-04-15T11:11:10;4.00;;;3.80;;
20294;SDS011;10306;52.128;5.208;2023-04-15T11:13:36;3.60;;;3.40;;
20294;SDS011;10306;52.128;5.208;2023-04-15T11:16:12;3.70;;;3.40;;
20294;SDS011;10306;52.128;5.208;2023-04-15T11:18:38;2.83;;;2.63;;
20294;SDS011;10306;52.128;5.208;2023-04-15T11:21:04;3.50;;;2.97;;
20294;SDS011;10306;52.128;5.208;2023-04-15T11:23:32;3.07;;;2.87;;
20294;SDS011;10306;52.128;5.208;2023-04-15T11:25:58;2.50;;;2.40;;
20294;SDS011;10306;52.128;5.208;2023-04-15T11:28:28;2.10;;;2.00;;
20294;SDS011;10306;52.128;5.208;2023-04-15T11:30:54;1.90;;;1.80;;
20294;SDS011;10306;52.128;5.208;2023-04-15T11:33:21;1.43;;;1.40;;
20294;SDS011;10306;52.128;5.208;2023-04-15T11:35:47;1.67;;;1.57;;
20294;SDS011;10306;52.128;5.208;2023-04-15T11:38:14;2.00;;;1.90;;
20294;SDS011;10306;52.128;5.208;2023-04-15T11:40:44;1.90;;;1.80;;
20294;SDS011;10306;52.128;5.208;2023-04-15T11:43:13;2.70;;;2.10;;
20294;SDS011;10306;52.128;5.208;2023-04-15T11:45:56;1.90;;;1.80;;
20294;SDS011;10306;52.128;5.208;2023-04-15T11:48:23;1.80;;;1.70;;
20294;SDS011;10306;52.128;5.208;2023-04-15T11:50:58;1.73;;;1.63;;
20294;SDS011;10306;52.128;5.208;2023-04-15T11:53:35;1.90;;;1.80;;
20294;SDS011;10306;52.128;5.208;2023-04-15T11:56:01;2.70;;;1.67;;
20294;SDS011;10306;52.128;5.208;2023-04-15T11:58:28;2.00;;;1.90;;
20294;SDS011;10306;52.128;5.208;2023-04-15T12:00:56;1.63;;;1.53;;
20294;SDS011;10306;52.128;5.208;2023-04-15T12:03:26;2.10;;;2.00;;
20294;SDS011;10306;52.128;5.208;2023-04-15T12:13:55;1.70;;;1.60;;
20294;SDS011;10306;52.128;5.208;2023-04-15T12:16:22;1.50;;;1.40;;
20294;SDS011;10306;52.128;5.208;2023-04-15T12:18:52;1.70;;;1.60;;
20294;SDS011;10306;52.128;5.208;2023-04-15T12:21:20;2.90;;;1.77;;
20294;SDS011;10306;52.128;5.208;2023-04-15T12:24:06;3.60;;;1.90;;
20294;SDS011;10306;52.128;5.208;2023-04-15T12:26:33;1.77;;;1.67;;
20294;SDS011;10306;52.128;5.208;2023-04-15T12:29:00;1.23;;;1.23;;
20294;SDS011;10306;52.128;5.208;2023-04-15T12:31:26;1.63;;;1.53;;
20294;SDS011;10306;52.128;5.208;2023-04-15T12:33:59;1.70;;;1.60;;
20294;SDS011;10306;52.128;5.208;2023-04-15T12:36:25;1.50;;;1.40;;
20294;SDS011;10306;52.128;5.208;2023-04-15T12:38:51;1.40;;;1.40;;
20294;SDS011;10306;52.128;5.208;2023-04-15T12:41:18;1.47;;;1.37;;
20294;SDS011;10306;52.128;5.208;2023-04-15T12:43:44;2.47;;;1.90;;
20294;SDS011;10306;52.128;5.208;2023-04-15T12:46:11;1.60;;;1.50;;
20294;SDS011;10306;52.128;5.208;2023-04-15T12:48:37;1.30;;;1.30;;
20294;SDS011;10306;52.128;5.208;2023-04-15T12:51:02;2.23;;;1.30;;
20294;SDS011;10306;52.128;5.208;2023-04-15T12:53:28;1.60;;;1.50;;
20294;SDS011;10306;52.128;5.208;2023-04-15T12:55:55;1.40;;;1.40;;
20294;SDS011;10306;52.128;5.208;2023-04-15T12:58:21;1.60;;;1.50;;
20294;SDS011;10306;52.128;5.208;2023-04-15T13:00:47;3.53;;;1.87;;
20294;SDS011;10306;52.128;5.208;2023-04-15T13:03:13;1.73;;;1.63;;
20294;SDS011;10306;52.128;5.208;2023-04-15T13:05:39;1.40;;;1.30;;
20294;SDS011;10306;52.128;5.208;2023-04-15T13:08:05;1.50;;;1.40;;
20294;SDS011;10306;52.128;5.208;2023-04-15T13:10:31;1.73;;;1.50;;
20294;SDS011;10306;52.128;5.208;2023-04-15T13:12:57;1.65;;;1.50;;
20294;SDS011;10306;52.128;5.208;2023-04-15T13:15:23;1.40;;;1.40;;
20294;SDS011;10306;52.128;5.208;2023-04-15T13:17:49;1.60;;;1.50;;
20294;SDS011;10306;52.128;5.208;2023-04-15T13:20:16;1.30;;;1.30;;
20294;SDS011;10306;52.128;5.208;2023-04-15T13:22:42;1.67;;;1.40;;
20294;SDS011;10306;52.128;5.208;2023-04-15T13:25:08;1.17;;;1.08;;
20294;SDS011;10306;52.128;5.208;2023-04-15T13:27:34;1.20;;;1.05;;
20294;SDS011;10306;52.128;5.208;2023-04-15T13:30:00;1.50;;;1.40;;
20294;SDS011;10306;52.128;5.208;2023-04-15T13:32:26;1.80;;;1.70;;
20294;SDS011;10306;52.128;5.208;2023-04-15T13:34:52;1.53;;;1.43;;
20294;SDS011;10306;52.128;5.208;2023-04-15T13:37:20;1.73;;;1.63;;
20294;SDS011;10306;52.128;5.208;2023-04-15T13:39:46;1.73;;;1.40;;
20294;SDS011;10306;52.128;5.208;2023-04-15T13:42:11;1.40;;;1.30;;
20294;SDS011;10306;52.128;5.208;2023-04-15T13:44:37;1.83;;;1.50;;
20294;SDS011;10306;52.128;5.208;2023-04-15T13:47:03;1.20;;;1.10;;
20294;SDS011;10306;52.128;5.208;2023-04-15T13:49:30;2.90;;;1.23;;
20294;SDS011;10306;52.128;5.208;2023-04-15T13:51:56;1.40;;;1.20;;
20294;SDS011;10306;52.128;5.208;2023-04-15T13:54:22;2.10;;;1.10;;
20294;SDS011;10306;52.128;5.208;2023-04-15T13:56:48;1.23;;;1.13;;
20294;SDS011;10306;52.128;5.208;2023-04-15T13:59:14;1.23;;;1.13;;
20294;SDS011;10306;52.128;5.208;2023-04-15T14:01:40;1.00;;;1.00;;
20294;SDS011;10306;52.128;5.208;2023-04-15T14:04:07;1.33;;;1.00;;
20294;SDS011;10306;52.128;5.208;2023-04-15T14:06:33;1.27;;;1.10;;
20294;SDS011;10306;52.128;5.208;2023-04-15T14:08:59;2.10;;;1.37;;
20294;SDS011;10306;52.128;5.208;2023-04-15T14:11:25;1.60;;;1.50;;
20294;SDS011;10306;52.128;5.208;2023-04-15T14:13:51;1.43;;;1.33;;
20294;SDS011;10306;52.128;5.208;2023-04-15T14:16:17;0.90;;;0.90;;
20294;SDS011;10306;52.128;5.208;2023-04-15T14:18:43;1.23;;;0.87;;
20294;SDS011;10306;52.128;5.208;2023-04-15T14:21:09;1.17;;;1.00;;
20294;SDS011;10306;52.128;5.208;2023-04-15T14:23:35;1.10;;;1.10;;
20294;SDS011;10306;52.128;5.208;2023-04-15T14:26:01;2.57;;;1.23;;
20294;SDS011;10306;52.128;5.208;2023-04-15T14:28:27;2.80;;;1.83;;
20294;SDS011;10306;52.128;5.208;2023-04-15T14:30:53;2.13;;;1.40;;
20294;SDS011;10306;52.128;5.208;2023-04-15T14:33:19;1.17;;;1.17;;
20294;SDS011;10306;52.128;5.208;2023-04-15T14:35:45;1.50;;;1.27;;
20294;SDS011;10306;52.128;5.208;2023-04-15T14:38:11;1.23;;;1.17;;
20294;SDS011;10306;52.128;5.208;2023-04-15T14:40:36;2.03;;;1.17;;
20294;SDS011;10306;52.128;5.208;2023-04-15T14:43:02;1.40;;;1.10;;
20294;SDS011;10306;52.128;5.208;2023-04-15T14:45:29;1.13;;;0.83;;
20294;SDS011;10306;52.128;5.208;2023-04-15T14:47:55;1.57;;;1.30;;
20294;SDS011;10306;52.128;5.208;2023-04-15T14:50:21;1.20;;;1.10;;
20294;SDS011;10306;52.128;5.208;2023-04-15T14:52:47;6.77;;;1.57;;
20294;SDS011;10306;52.128;5.208;2023-04-15T14:55:13;2.37;;;1.20;;
20294;SDS011;10306;52.128;5.208;2023-04-15T14:57:39;1.93;;;1.07;;